Terminal Aerodrome Forecast
Issued by NWS

Home | Current Version | Previous Version | Text Only | Print | Product List | Glossary On
Versions: 1 2 3 4 5 6 7 8 9 10 11 12 13 14 15
000
FTUS44 KEPZ 271300 AAA
TAFLRU
TAF AMD
KLRU 271316Z 2713/2812 10006KT P6SM BKN004
      TEMPO 2714/2716 SCT004 BKN080
     FM271600 36006KT P6SM SCT080
     FM271800 02010KT P6SM FEW100
     FM280200 34006KT P6SM SKC=

USA.gov is the U.S. government's official web portal to all federal, state and local government web resources and services.